Latest Weather Observations for Blackwater Airport

IDQ60801

Issued at 10:02 am EST Thursday 23 February 2017 (issued every 30 minutes, with the page automatically refreshed every 10 minutes)

About weather observations | Map of weather stations | Latest weather observations for QLD | Other Formats
Station Details ID: 035134 Name: BLACKWATER AIRPORT Lat: -23.60 Lon: 148.81 Height: 192.95 m
Data from the previous 72 hours. | See also: Recent months at Blackwater Airport
Date/Time
EST
Temp
°C
App
Temp
°C
Dew
Point
°C
Rel
Hum
%
Delta-T
°C
Wind Press
QNH
hPa
Press
MSL
hPa
Rain since
9am
mm
Dir  Spd
km/h
Gust
km/h
Spd
kts
Gust
kts
23/10:00am 30.0 29.5 13.7 37 9.8 NE 9 19 5 10 1018.2 1017.0 -
23/09:30am 28.9 28.1 13.9 39 9.0 ESE 11 20 6 11 1018.5 1017.3 0.0
23/09:00am 27.9 25.9 13.8 42 8.4 E 17 24 9 13 1018.6 1017.4 0.0
23/08:30am 27.6 25.7 14.3 44 8.0 ENE 17 28 9 15 1018.6 1017.4 0.0
23/08:00am 26.9 26.5 14.0 45 7.7 SE 9 15 5 8 1018.6 1017.4 0.0
23/07:30am 25.6 25.1 13.8 48 7.0 ESE 9 13 5 7 1018.5 1017.3 0.0
23/07:00am 24.2 25.4 14.9 56 5.6 S 2 6 1 3 1018.2 1017.0 0.0
23/06:30am 21.5 22.5 15.3 68 3.7 SSE 4 11 2 6 1017.9 1016.7 0.0
23/06:00am 21.7 22.0 15.1 66 3.9 ESE 7 9 4 5 1017.6 1016.4 0.0
23/05:30am 21.8 21.5 15.4 67 3.8 E 11 13 6 7 1017.0 1015.7 0.0
23/05:00am 21.8 21.6 15.6 68 3.7 ENE 11 13 6 7 1016.6 1015.3 0.0
23/04:30am 22.4 22.7 16.0 67 3.9 ENE 9 13 5 7 1016.5 1015.2 0.0
23/04:00am 23.0 21.8 16.1 65 4.2 ENE 17 22 9 12 1016.1 1014.8 0.0
23/03:30am 23.5 21.8 16.3 64 4.4 ENE 20 28 11 15 1016.0 1014.7 0.0
23/03:00am 23.6 22.2 17.1 67 4.0 ENE 20 30 11 16 1016.1 1014.8 0.0
23/02:30am 23.6 23.3 17.3 67 3.9 ENE 15 20 8 11 1016.1 1014.8 0.0
23/02:00am 23.9 22.8 17.2 66 4.2 ENE 19 24 10 13 1016.2 1014.9 0.0
23/01:30am 24.3 22.6 17.3 65 4.4 ENE 22 33 12 18 1016.3 1015.0 0.0
23/01:00am 24.5 23.2 17.2 63 4.6 ENE 20 32 11 17 1016.3 1015.0 0.0
23/12:30am 24.9 22.3 16.9 61 5.0 ENE 26 39 14 21 1016.3 1015.0 0.0
23/12:00am 25.2 23.4 16.9 60 5.2 ENE 22 32 12 17 1016.6 1015.3 0.0
 
Date/Time
EST
Temp
°C
App
Temp
°C
Dew
Point
°C
Rel
Hum
%
Delta-T
°C
Wind Press
QNH
hPa
Press
MSL
hPa
Rain since
9am
mm
Dir  Spd
km/h
Gust
km/h
Spd
kts
Gust
kts
22/11:30pm 25.5 24.3 17.4 61 5.1 NE 20 32 11 17 1016.8 1015.5 0.0
22/11:00pm 25.8 23.7 17.2 59 5.4 NE 24 32 13 17 1016.7 1015.4 0.0
22/10:30pm 26.1 23.9 16.9 57 5.8 NE 24 37 13 20 1016.5 1015.2 0.0
22/10:00pm 26.4 24.5 16.6 55 6.1 NE 22 33 12 18 1016.4 1015.1 0.0
22/09:30pm 27.0 25.4 17.5 56 6.0 ENE 22 33 12 18 1015.9 1014.6 0.0
22/09:00pm 27.8 25.6 17.9 54 6.3 NE 26 35 14 19 1015.6 1014.3 0.0
22/08:30pm 28.6 27.5 17.8 52 6.9 NE 20 30 11 16 1014.9 1013.6 0.0
22/08:00pm 29.6 28.4 17.1 47 7.9 NE 19 39 10 21 1014.3 1013.0 0.0
22/07:30pm 30.2 29.2 16.6 44 8.6 NE 17 24 9 13 1013.8 1012.6 0.0
22/07:00pm 30.7 30.0 15.5 39 9.5 NE 13 17 7 9 1013.5 1012.3 0.0
22/06:30pm 32.0 30.2 15.5 37 10.3 NE 19 26 10 14 1013.1 1011.9 0.0
22/06:00pm 33.1 31.9 16.0 35 10.8 ENE 17 35 9 19 1012.9 1011.7 0.0
22/05:30pm 33.3 31.3 13.9 31 11.9 E 17 22 9 12 1012.7 1011.4 0.0
22/05:00pm 34.1 32.2 14.1 30 12.3 E 17 26 9 14 1012.7 1011.4 0.0
22/04:30pm 33.7 32.0 14.7 32 11.8 ENE 17 24 9 13 1012.6 1011.3 0.0
22/04:00pm 33.3 31.6 14.8 32 11.5 E 17 20 9 11 1012.8 1011.5 0.0
22/03:30pm 33.4 31.9 15.4 34 11.3 ENE 17 26 9 14 1012.9 1011.7 0.0
22/03:00pm 34.0 33.1 15.9 33 11.5 ENE 15 24 8 13 1013.0 1011.8 0.0
22/02:30pm 32.8 31.7 15.3 34 10.9 ESE 15 24 8 13 1013.3 1012.1 0.0
22/02:00pm 33.2 31.6 16.1 35 10.8 E 19 26 10 14 1013.6 1012.4 0.0
22/01:30pm 32.4 31.1 15.8 36 10.4 E 17 28 9 15 1014.1 1012.8 0.0
22/01:00pm 32.7 32.4 16.5 37 10.3 ESE 13 20 7 11 1014.5 1013.2 0.0
22/12:30pm 32.5 31.8 16.3 37 10.3 NE 15 24 8 13 1014.9 1013.6 0.0
22/12:00pm 31.8 31.0 16.1 38 9.9 ESE 15 22 8 12 1015.4 1014.1 0.0
22/11:30am 31.6 31.6 17.1 41 9.3 ENE 13 28 7 15 1015.9 1014.6 0.0
22/11:00am 31.0 30.0 18.0 45 8.4 NE 20 28 11 15 1016.3 1015.0 0.0
22/10:30am 30.1 29.1 17.9 48 7.8 ENE 20 32 11 17 1016.7 1015.4 0.0
22/10:00am 29.6 27.2 17.4 47 7.8 ENE 26 35 14 19 1016.9 1015.6 0.0
22/09:30am 28.9 27.4 17.7 50 7.2 E 22 32 12 17 1017.1 1015.8 0.0
22/09:00am 28.3 27.2 17.8 53 6.7 ESE 20 30 11 16 1017.3 1016.0 0.0
22/08:30am 26.6 26.1 19.0 63 4.9 E 20 28 11 15 1017.2 1015.9 0.0
22/08:00am 26.1 26.7 19.5 67 4.3 E 15 20 8 11 1017.2 1015.9 0.0
22/07:30am 25.8 25.9 19.9 70 3.9 E 19 28 10 15 1017.1 1015.8 0.0
22/07:00am 25.4 26.2 20.6 75 3.2 ENE 17 24 9 13 1017.0 1015.7 0.0
22/06:30am 25.0 25.6 20.3 75 3.1 ENE 17 26 9 14 1016.8 1015.5 0.0
22/06:00am 24.2 25.3 19.7 76 2.9 ENE 13 20 7 11 1016.8 1015.5 0.0
22/05:30am 23.9 23.0 19.0 74 3.1 ENE 22 33 12 18 1016.5 1015.2 0.0
22/05:00am 24.8 25.1 20.5 77 2.8 ENE 19 30 10 16 1016.2 1014.9 0.0
22/04:30am 24.9 26.2 20.8 78 2.7 ENE 15 22 8 12 1015.6 1014.3 0.0
22/04:00am 25.0 27.1 20.9 78 2.7 ENE 11 17 6 9 1015.4 1014.1 0.0
22/03:30am 25.0 26.2 20.7 77 2.8 NE 15 22 8 12 1015.1 1013.8 0.0
22/03:00am 25.1 26.7 20.8 77 2.8 ENE 13 19 7 10 1015.3 1014.0 0.0
22/02:30am 25.3 26.6 20.8 76 3.0 ENE 15 20 8 11 1015.1 1013.8 0.0
22/02:00am 25.7 26.5 20.7 74 3.3 ENE 17 24 9 13 1015.1 1013.8 0.0
22/01:30am 25.6 26.4 20.6 74 3.3 ENE 17 22 9 12 1015.4 1014.1 0.0
22/01:00am 26.0 27.3 20.8 73 3.4 ENE 15 20 8 11 1015.7 1014.4 0.0
22/12:30am 26.1 26.4 20.4 71 3.8 ENE 19 28 10 15 1015.6 1014.3 0.0
22/12:00am 26.4 26.3 20.0 68 4.2 ENE 20 28 11 15 1015.6 1014.3 0.0
 
Date/Time
EST
Temp
°C
App
Temp
°C
Dew
Point
°C
Rel
Hum
%
Delta-T
°C
Wind Press
QNH
hPa
Press
MSL
hPa
Rain since
9am
mm
Dir  Spd
km/h
Gust
km/h
Spd
kts
Gust
kts
21/11:30pm 26.8 27.7 19.2 63 4.9 ENE 13 22 7 12 1015.6 1014.3 0.0
21/11:00pm 27.4 26.9 18.7 59 5.6 ENE 19 26 10 14 1015.4 1014.1 0.0
21/10:30pm 27.9 26.8 19.4 60 5.5 ENE 24 35 13 19 1014.8 1013.5 0.0
21/10:00pm 28.0 27.2 20.0 61 5.3 NE 24 33 13 18 1014.6 1013.3 0.0
21/09:30pm 28.7 27.7 19.6 58 6.0 NE 24 33 13 18 1014.5 1013.2 0.0
21/09:00pm 29.7 28.2 17.8 48 7.6 ENE 22 35 12 19 1014.1 1012.8 0.0
21/08:30pm 29.5 27.0 11.1 32 10.6 E 15 24 8 13 1013.8 1012.6 0.0
21/08:00pm 30.2 28.2 8.6 26 12.0 ESE 9 13 5 7 1013.2 1012.0 0.0
21/07:30pm 30.2 27.7 8.0 25 12.3 ESE 11 13 6 7 1013.1 1011.9 0.0
21/07:00pm 31.1 28.6 8.2 24 12.7 E 11 15 6 8 1013.0 1011.8 0.0
21/06:30pm 32.0 29.5 8.3 23 13.3 E 11 17 6 9 1012.7 1011.4 0.0
21/06:00pm 33.4 29.2 8.1 21 14.2 E 20 24 11 13 1012.5 1011.2 0.0
21/05:30pm 34.3 30.1 8.1 20 14.8 ENE 20 28 11 15 1012.0 1010.7 0.0
21/05:00pm 35.6 32.0 8.4 19 15.5 ESE 17 24 9 13 1011.8 1010.5 0.0
21/04:30pm 35.0 32.6 7.1 18 15.6 SE 9 15 5 8 1011.8 1010.5 0.0
21/04:00pm 35.8 31.5 7.0 17 16.1 S 19 30 10 16 1011.8 1010.5 0.0
21/03:30pm 35.4 32.9 6.6 17 16.0 SSE 9 26 5 14 1011.8 1010.5 0.0
21/03:00pm 35.8 32.1 6.1 16 16.4 SSE 15 26 8 14 1012.2 1010.9 0.0
21/02:30pm 35.6 31.4 5.9 16 16.3 SSE 17 32 9 17 1012.5 1011.2 0.0
21/02:00pm 35.5 33.4 6.7 17 16.0 N 7 11 4 6 1012.7 1011.4 0.0
21/01:30pm 35.1 33.1 6.4 17 15.8 NNW 6 15 3 8 1013.1 1011.9 0.0
21/01:00pm 35.0 31.3 6.3 17 15.8 E 15 24 8 13 1013.4 1012.2 0.0
21/12:30pm 34.8 31.3 7.0 18 15.5 E 15 24 8 13 1013.9 1012.7 0.0
21/12:00pm 34.3 31.0 6.6 18 15.3 NNE 13 19 7 10 1014.4 1013.1 0.0
21/11:30am 33.0 30.2 7.1 20 14.3 SSE 11 15 6 8 1014.7 1013.4 0.0
21/11:00am 32.7 29.9 6.8 20 14.2 ENE 11 17 6 9 1015.2 1013.9 0.0
21/10:30am 31.9 28.6 6.2 20 13.9 ENE 13 20 7 11 1015.4 1014.1 0.0
21/10:00am 30.8 28.9 6.6 22 13.1 NE 6 11 3 6 1015.7 1014.4 0.0
21/09:30am 30.2 28.3 7.4 24 12.5 NNE 7 13 4 7 1015.7 1014.4 0.0
21/09:00am 29.8 27.8 7.1 24 12.3 S 7 11 4 6 1015.7 1014.4 0.0
21/08:30am 28.7 26.6 6.7 25 11.8 SSE 7 11 4 6 1015.6 1014.3 0.0
21/08:00am 28.2 25.4 6.9 26 11.4 SSE 11 15 6 8 1015.3 1014.0 0.0
21/07:30am 25.4 23.6 9.3 36 8.9 S 9 13 5 7 1015.2 1013.9 0.0
21/07:00am 22.3 20.4 10.5 47 6.5 SSW 11 15 6 8 1015.1 1013.8 0.0
21/06:30am 19.3 17.2 9.8 54 5.1 S 11 13 6 7 1014.8 1013.5 0.0
21/06:00am 17.5 16.3 9.7 60 4.1 S 6 7 3 4 1014.5 1013.2 0.0
21/05:30am 17.8 15.4 9.9 60 4.2 SSW 13 15 7 8 1014.5 1013.2 0.0
21/05:00am 19.0 16.6 10.0 56 4.8 SW 13 13 7 7 1014.2 1012.9 0.0
21/04:30am 19.1 17.5 10.1 56 4.9 SW 9 13 5 7 1014.2 1012.9 0.0
21/04:00am 20.0 18.3 9.9 52 5.5 WSW 9 13 5 7 1013.8 1012.6 0.0
21/03:30am 20.5 18.5 10.0 51 5.7 WSW 11 15 6 8 1013.4 1012.2 0.0
21/03:00am 21.1 19.4 10.0 49 6.0 W 9 11 5 6 1013.1 1011.9 0.0
21/02:30am 20.9 18.8 9.8 49 6.0 WSW 11 13 6 7 1013.0 1011.8 0.0
21/02:00am 20.7 19.5 9.6 49 6.0 WSW 6 7 3 4 1012.8 1011.5 0.0
21/01:30am 21.5 20.0 9.1 45 6.7 SW 7 9 4 5 1012.7 1011.4 0.0
21/01:00am 22.1 21.1 8.9 43 7.1 ENE 4 11 2 6 1012.9 1011.7 0.0
21/12:30am 22.6 20.5 8.3 40 7.6 NE 9 13 5 7 1013.0 1011.8 0.0
21/12:00am 24.2 22.3 9.0 38 8.3 E 9 20 5 11 1012.8 1011.5 0.0
 
Date/Time
EST
Temp
°C
App
Temp
°C
Dew
Point
°C
Rel
Hum
%
Delta-T
°C
Wind Press
QNH
hPa
Press
MSL
hPa
Rain since
9am
mm
Dir  Spd
km/h
Gust
km/h
Spd
kts
Gust
kts
20/11:30pm 25.6 22.5 9.0 35 9.1 SSE 15 17 8 9 1012.7 1011.4 0.0
20/11:00pm 25.6 22.4 8.6 34 9.3 SE 15 17 8 9 1012.5 1011.2 0.0
20/10:30pm 26.7 23.1 8.2 31 10.1 SE 17 20 9 11 1012.5 1011.2 0.0
20/10:00pm 26.7 22.7 8.2 31 10.1 SSE 19 22 10 12 1012.6 1011.3 0.0
20/09:30pm 27.2 23.0 7.6 29 10.6 SSE 19 24 10 13 1012.6 1011.3 0.0
20/09:00pm 27.4 23.5 7.3 28 10.8 SSE 17 22 9 12 1012.5 1011.2 0.0
20/08:30pm 27.2 23.0 7.6 29 10.6 SE 19 20 10 11 1012.2 1010.9 0.0
20/08:00pm 28.1 24.6 7.4 27 11.2 SSE 15 19 8 10 1012.0 1010.7 0.0
20/07:30pm 28.3 24.4 7.0 26 11.5 S 17 20 9 11 1011.6 1010.3 0.0
20/07:00pm 28.9 24.7 5.7 23 12.3 S 17 20 9 11 1011.1 1009.8 0.0
20/06:30pm 30.2 26.6 4.8 20 13.3 SSW 13 17 7 9 1010.7 1009.4 0.0
20/06:00pm 32.4 27.2 3.4 16 15.0 SSW 20 26 11 14 1010.2 1008.9 0.0
20/05:30pm 33.3 30.1 3.2 15 15.6 SE 9 17 5 9 1009.7 1008.4 0.0
20/05:00pm 34.0 29.6 2.8 14 16.2 SSW 15 24 8 13 1009.4 1008.1 0.0
20/04:30pm 34.2 30.0 3.9 15 16.0 SSE 15 24 8 13 1009.2 1007.9 0.0
20/04:00pm 34.3 29.9 4.9 16 15.8 S 17 24 9 13 1009.1 1007.8 0.0
20/03:30pm 34.6 30.5 6.0 17 15.6 SSW 17 30 9 16 1009.0 1007.7 0.0
20/03:00pm 34.1 29.5 6.4 18 15.2 SW 20 33 11 18 1009.2 1007.9 0.0
20/02:30pm 34.8 30.3 7.0 18 15.5 SW 20 32 11 17 1009.3 1008.0 0.0
20/02:00pm 33.6 29.1 6.8 19 14.8 S 20 32 11 17 1009.8 1008.5 0.0
20/01:30pm 32.8 29.2 8.3 22 13.8 SSE 17 28 9 15 1010.3 1009.0 0.0
20/01:00pm 33.2 29.7 7.2 20 14.4 SW 15 26 8 14 1010.6 1009.3 0.0
20/12:30pm 32.8 28.7 6.2 19 14.5 SE 17 28 9 15 1011.0 1009.7 0.0
20/12:00pm 31.9 27.4 6.9 21 13.7 SSW 20 30 11 16 1011.3 1010.0 0.0
20/11:30am 32.0 27.0 4.7 18 14.4 SSE 20 26 11 14 1011.7 1010.4 0.0
20/11:00am 32.0 28.2 8.9 24 13.1 S 19 33 10 18 1011.9 1010.6 0.0
20/10:30am 29.4 28.2 14.0 39 9.3 E 13 20 7 11 1012.2 1010.9 0.0

Other Formats:

Comma delimited format used in spreadsheet applications
http://www.bom.gov.au/fwo/IDQ60801/IDQ60801.94398.axf

JavaScript Object Notation format (JSON) in row-major order
http://www.bom.gov.au/fwo/IDQ60801/IDQ60801.94398.json